Terminal Aerodrome Forecast
Issued by NWS Wilmington, OH

Current Version | Previous Version | Text Only | Print | Product List | Glossary Off
Versions: 1 2 3 4 5 6 7 8 9 10 11 12 13 14 15 16 17 18 19 20 21 22

431
FTUS41 KILN 090532
TAFCVG
TAF
KCVG 090532Z 0906/1012 28012G20KT 2SM -SN OVC025
      TEMPO 0906/0910 3/4SM -SN OVC015
     FM091400 28012G20KT P6SM -SHSN OVC025
     FM100200 28012KT 5SM -SHSN OVC025=

USA.gov is the U.S. government's official web portal to all federal, state and local government web resources and services.